Time;durP1;ratioP1;P1;durP2;ratioP2;P2;SDS_P1;SDS_P2;PMS_P1;PMS_P2;Temp;Humidity;BMP_temperature;BMP_pressure;BME280_temperature;BME280_humidity;BME280_pressure;Samples;Min_cycle;Max_cycle;Signal;HPM_P1;HPM_P2
2021/08/09 00:01:34;;;;;;;7.82;3.22;;;14.90;99.90;;;;;;5010786;28;20479;-63
2021/08/09 00:04:00;;;;;;;9.77;3.70;;;14.80;99.90;;;;;;5006352;28;20489;-63
2021/08/09 00:06:26;;;;;;;7.85;3.42;;;14.80;99.90;;;;;;5010578;28;20045;-63
2021/08/09 00:08:51;;;;;;;8.48;3.50;;;14.80;99.90;;;;;;5006426;28;20045;-64
2021/08/09 00:11:17;;;;;;;9.60;3.15;;;14.80;99.90;;;;;;5006957;28;20030;-63
2021/08/09 00:13:43;;;;;;;9.63;2.90;;;14.70;99.90;;;;;;5006102;28;20642;-63
2021/08/09 00:16:09;;;;;;;11.25;4.03;;;14.70;99.90;;;;;;5005878;28;20077;-63
2021/08/09 00:18:35;;;;;;;6.68;3.17;;;14.80;99.90;;;;;;5007207;28;20057;-63
2021/08/09 00:21:00;;;;;;;7.72;3.20;;;14.80;99.90;;;;;;5006885;28;20045;-64
2021/08/09 00:23:26;;;;;;;10.20;3.95;;;14.80;99.90;;;;;;5004668;28;20042;-64
2021/08/09 00:25:52;;;;;;;7.68;3.30;;;14.80;99.90;;;;;;5004491;28;20042;-64
2021/08/09 00:28:18;;;;;;;9.30;3.70;;;14.80;99.90;;;;;;5004312;28;20164;-64
2021/08/09 00:30:44;;;;;;;7.53;3.53;;;14.80;99.90;;;;;;5007899;28;20053;-64
2021/08/09 00:33:09;;;;;;;9.95;3.25;;;14.70;99.90;;;;;;5008902;28;20062;-64
2021/08/09 00:35:35;;;;;;;9.25;3.70;;;14.80;99.90;;;;;;5010032;28;20088;-64
2021/08/09 00:38:01;;;;;;;7.93;3.28;;;14.70;99.90;;;;;;5007798;28;20041;-64
2021/08/09 00:40:26;;;;;;;6.38;3.22;;;14.70;99.90;;;;;;5008158;28;20401;-64
2021/08/09 00:42:52;;;;;;;9.98;3.97;;;14.60;99.90;;;;;;5004136;28;20491;-64
2021/08/09 00:45:18;;;;;;;7.70;3.60;;;14.60;99.90;;;;;;5005836;28;20038;-64
2021/08/09 00:47:43;;;;;;;9.55;4.07;;;14.50;99.90;;;;;;5005462;28;20042;-64
2021/08/09 00:50:09;;;;;;;9.48;3.90;;;14.60;99.90;;;;;;5004614;28;20038;-64
2021/08/09 00:52:35;;;;;;;11.25;3.63;;;14.50;99.90;;;;;;5003773;28;20460;-64
2021/08/09 00:55:01;;;;;;;14.40;4.10;;;14.50;99.90;;;;;;5005672;28;20046;-64
2021/08/09 00:57:27;;;;;;;8.80;4.03;;;14.40;99.90;;;;;;5009158;28;20038;-63
2021/08/09 00:59:53;;;;;;;11.05;4.25;;;14.40;99.90;;;;;;5011835;28;20087;-63
2021/08/09 01:02:22;;;;;;;8.32;3.80;;;14.30;99.90;;;;;;5007398;28;20108;-64
2021/08/09 01:04:48;;;;;;;12.70;4.10;;;14.30;99.90;;;;;;5007979;28;20168;-64
2021/08/09 01:07:13;;;;;;;7.45;3.88;;;14.30;99.90;;;;;;5008597;28;20580;-63
2021/08/09 01:10:06;;;;;;;10.90;4.20;;;14.30;99.90;;;;;;5008366;28;20471;-63
2021/08/09 01:12:41;;;;;;;11.20;4.10;;;14.30;99.90;;;;;;5012454;28;20034;-64
2021/08/09 01:15:16;;;;;;;10.98;4.28;;;14.30;99.90;;;;;;5009637;28;20045;-63
2021/08/09 01:17:45;;;;;;;8.07;4.53;;;14.30;99.90;;;;;;5005031;28;20072;-64
2021/08/09 01:20:17;;;;;;;14.60;4.72;;;14.40;99.90;;;;;;5011095;28;20034;-64
2021/08/09 01:22:54;;;;;;;10.93;4.70;;;14.40;99.90;;;;;;5006716;28;20433;-64
2021/08/09 01:25:37;;;;;;;12.20;4.80;;;14.30;99.90;;;;;;5006533;28;20037;-64
2021/08/09 01:28:05;;;;;;;13.98;4.90;;;14.40;99.90;;;;;;5013522;28;20044;-64
2021/08/09 01:30:32;;;;;;;9.88;4.78;;;14.40;99.90;;;;;;5008774;28;20121;-64
2021/08/09 01:32:59;;;;;;;8.95;4.72;;;14.40;99.90;;;;;;5006848;28;20103;-64
2021/08/09 01:35:26;;;;;;;9.73;4.97;;;14.50;99.90;;;;;;5006868;28;20037;-64
2021/08/09 01:37:54;;;;;;;10.75;4.57;;;14.50;99.90;;;;;;5005808;28;20038;-63
2021/08/09 01:40:21;;;;;;;10.82;4.80;;;14.50;99.90;;;;;;5008712;28;20046;-63
2021/08/09 01:42:48;;;;;;;12.90;4.82;;;14.50;99.90;;;;;;5008995;28;20040;-64
2021/08/09 01:45:15;;;;;;;10.30;4.55;;;14.50;99.90;;;;;;5007957;28;20480;-63
2021/08/09 01:47:42;;;;;;;10.95;4.80;;;14.50;99.90;;;;;;5008889;28;20046;-64
2021/08/09 01:50:10;;;;;;;12.27;4.43;;;14.60;99.90;;;;;;5007892;28;20034;-63
2021/08/09 01:52:38;;;;;;;8.70;4.65;;;14.60;99.90;;;;;;5005897;28;20048;-64
2021/08/09 01:55:04;;;;;;;10.98;4.53;;;14.60;99.90;;;;;;5009928;28;20120;-64
2021/08/09 01:57:30;;;;;;;9.88;4.10;;;14.60;99.90;;;;;;5013763;28;20607;-64
2021/08/09 01:59:56;;;;;;;7.78;3.67;;;14.60;99.90;;;;;;5011010;28;20112;-64
2021/08/09 02:02:30;;;;;;;9.23;4.25;;;14.70;99.90;;;;;;5008680;28;20036;-63
2021/08/09 02:05:03;;;;;;;8.25;3.92;;;14.70;99.90;;;;;;5007806;28;20041;-64
2021/08/09 02:07:28;;;;;;;12.48;4.43;;;14.70;99.90;;;;;;5007175;28;20098;-63
2021/08/09 02:09:54;;;;;;;7.93;3.83;;;14.70;99.90;;;;;;5007459;28;20080;-64
2021/08/09 02:12:20;;;;;;;9.45;3.88;;;14.70;99.90;;;;;;5007353;28;20079;-64
2021/08/09 02:14:53;;;;;;;8.20;3.88;;;14.70;99.90;;;;;;5009060;28;20122;-64
2021/08/09 02:17:29;;;;;;;10.70;4.15;;;14.70;99.90;;;;;;5006765;28;20056;-64
2021/08/09 02:20:03;;;;;;;11.25;4.20;;;14.70;99.90;;;;;;5005002;28;20042;-64
2021/08/09 02:22:30;;;;;;;11.98;4.55;;;14.70;99.90;;;;;;5004413;28;20549;-64
2021/08/09 02:25:04;;;;;;;8.88;4.10;;;14.70;99.90;;;;;;5002578;28;20046;-64
2021/08/09 02:27:38;;;;;;;10.38;4.35;;;14.80;99.90;;;;;;5002463;28;20057;-63
2021/08/09 02:30:05;;;;;;;9.25;4.00;;;14.70;99.90;;;;;;5005942;28;20056;-64
2021/08/09 02:32:31;;;;;;;10.02;4.25;;;14.70;99.90;;;;;;5005757;28;20073;-64
2021/08/09 02:35:00;;;;;;;11.93;3.92;;;14.70;99.90;;;;;;5007770;28;20050;-64
2021/08/09 02:37:27;;;;;;;12.90;4.20;;;14.70;99.90;;;;;;5006879;28;20499;-64
2021/08/09 02:39:54;;;;;;;11.00;3.90;;;14.70;99.90;;;;;;5010918;28;20042;-64
2021/08/09 02:42:21;;;;;;;7.78;4.10;;;14.70;99.90;;;;;;5005330;28;20033;-64
2021/08/09 02:44:47;;;;;;;14.43;4.28;;;14.70;99.90;;;;;;5006334;28;20038;-63
2021/08/09 02:47:14;;;;;;;9.88;4.05;;;14.70;99.90;;;;;;5006534;28;20042;-64
2021/08/09 02:49:46;;;;;;;10.77;4.10;;;14.70;99.90;;;;;;5010236;28;20046;-64
2021/08/09 02:52:12;;;;;;;9.98;4.40;;;14.60;99.90;;;;;;5009662;28;20030;-64
2021/08/09 02:54:38;;;;;;;12.57;4.22;;;14.60;99.90;;;;;;5006433;28;20056;-64
2021/08/09 02:57:05;;;;;;;11.02;4.05;;;14.60;99.90;;;;;;5010169;28;20045;-63
2021/08/09 02:59:31;;;;;;;12.93;4.50;;;14.50;99.90;;;;;;5008235;28;20034;-64
2021/08/09 03:01:58;;;;;;;12.45;4.15;;;14.40;99.90;;;;;;5008911;28;20041;-64
2021/08/09 03:04:26;;;;;;;14.68;4.60;;;14.40;99.90;;;;;;5010050;28;20394;-64
2021/08/09 03:06:53;;;;;;;13.07;4.82;;;14.30;99.90;;;;;;5012909;28;20510;-63
2021/08/09 03:09:20;;;;;;;14.73;4.63;;;14.30;99.90;;;;;;5009616;28;20049;-63
2021/08/09 03:11:46;;;;;;;12.02;4.97;;;14.20;99.90;;;;;;5009952;28;20403;-64
2021/08/09 03:14:22;;;;;;;9.57;4.18;;;14.20;99.90;;;;;;5016400;28;20030;-64
2021/08/09 03:16:50;;;;;;;10.05;4.65;;;14.10;99.90;;;;;;5010351;28;20679;-64
2021/08/09 03:19:15;;;;;;;13.48;4.65;;;14.10;99.90;;;;;;5007479;28;20717;-64
2021/08/09 03:21:49;;;;;;;12.40;4.68;;;14.10;99.90;;;;;;5009318;28;20122;-64
2021/08/09 03:24:15;;;;;;;9.73;4.18;;;14.20;99.90;;;;;;5008344;28;20045;-64
2021/08/09 03:26:40;;;;;;;11.95;5.05;;;14.20;99.90;;;;;;5008219;28;20046;-64
2021/08/09 03:29:06;;;;;;;13.55;4.70;;;14.20;99.90;;;;;;5007713;28;20517;-64
2021/08/09 03:31:31;;;;;;;12.57;4.68;;;14.20;99.90;;;;;;5009292;28;20478;-64
2021/08/09 03:33:57;;;;;;;10.70;5.53;;;14.20;99.90;;;;;;5011753;28;20050;-64
2021/08/09 03:36:23;;;;;;;13.38;5.05;;;14.20;99.90;;;;;;5011931;28;20049;-64
2021/08/09 03:38:49;;;;;;;11.32;4.63;;;14.30;99.90;;;;;;5007751;28;20038;-64
2021/08/09 03:41:14;;;;;;;15.27;5.05;;;14.30;99.90;;;;;;5005557;28;20112;-64
2021/08/09 03:43:40;;;;;;;11.88;4.65;;;14.30;99.90;;;;;;5005984;28;20041;-65
2021/08/09 03:48:31;;;;;;;13.30;4.70;;;14.20;99.90;;;;;;5019522;22;20053;-72
2021/08/09 03:50:59;;;;;;;11.93;4.65;;;14.30;99.90;;;;;;5006214;28;20550;-72
2021/08/09 03:53:25;;;;;;;11.02;5.45;;;14.20;99.90;;;;;;5005994;28;20159;-72
2021/08/09 03:55:51;;;;;;;10.45;4.82;;;14.20;99.90;;;;;;5004699;28;20041;-72
2021/08/09 03:58:16;;;;;;;12.57;4.68;;;14.20;99.90;;;;;;4998913;28;20076;-72
2021/08/09 04:00:42;;;;;;;15.60;4.95;;;14.20;99.90;;;;;;4994533;28;20050;-72
2021/08/09 04:03:08;;;;;;;11.80;4.97;;;14.10;99.90;;;;;;5003790;28;20503;-71
2021/08/09 04:05:33;;;;;;;12.68;5.00;;;14.10;99.90;;;;;;5002356;28;20034;-72
2021/08/09 04:07:59;;;;;;;12.88;5.15;;;14.10;99.90;;;;;;5004993;28;20046;-72
2021/08/09 04:10:25;;;;;;;14.23;5.57;;;14.10;99.90;;;;;;5001645;28;20485;-72
2021/08/09 04:12:50;;;;;;;11.05;4.72;;;14.20;99.90;;;;;;5004001;28;20113;-72
2021/08/09 04:15:16;;;;;;;9.63;4.63;;;14.20;99.90;;;;;;5007334;28;20129;-72
2021/08/09 04:17:43;;;;;;;14.00;4.88;;;14.10;99.90;;;;;;5005537;28;20084;-72
2021/08/09 04:20:09;;;;;;;14.90;5.22;;;14.20;99.90;;;;;;4999914;28;20166;-72
2021/08/09 04:22:34;;;;;;;13.18;4.97;;;14.20;99.90;;;;;;5013256;28;20106;-72
2021/08/09 04:25:01;;;;;;;11.35;4.95;;;14.20;99.90;;;;;;5004622;28;20060;-72
2021/08/09 04:27:27;;;;;;;11.35;4.68;;;14.20;99.90;;;;;;5003128;28;20042;-72
2021/08/09 04:29:53;;;;;;;10.70;4.75;;;14.20;99.90;;;;;;5003243;28;20078;-72
2021/08/09 04:32:19;;;;;;;15.15;5.10;;;14.20;99.90;;;;;;5001480;28;20125;-72
2021/08/09 04:34:46;;;;;;;13.48;4.55;;;14.30;99.90;;;;;;5010201;28;20049;-72
2021/08/09 04:37:12;;;;;;;13.23;5.22;;;14.30;99.90;;;;;;5002416;28;20038;-72
2021/08/09 04:39:38;;;;;;;13.27;5.18;;;14.30;99.90;;;;;;5004451;28;20038;-72
2021/08/09 04:42:05;;;;;;;12.60;4.60;;;14.30;99.90;;;;;;5010167;28;20042;-72
2021/08/09 04:44:31;;;;;;;15.10;5.15;;;14.30;99.90;;;;;;4999632;28;20039;-72
2021/08/09 04:46:57;;;;;;;13.60;4.78;;;14.30;99.90;;;;;;5001676;28;20053;-72
2021/08/09 04:49:24;;;;;;;11.23;4.68;;;14.30;99.90;;;;;;5008265;28;20073;-71
2021/08/09 04:51:49;;;;;;;10.27;4.53;;;14.30;99.90;;;;;;5009402;28;20549;-72
2021/08/09 04:54:15;;;;;;;12.68;4.82;;;14.40;99.90;;;;;;5002256;28;20044;-72
2021/08/09 04:56:41;;;;;;;9.68;4.32;;;14.30;99.90;;;;;;5001858;28;20518;-72
2021/08/09 04:59:08;;;;;;;13.43;5.35;;;14.40;99.90;;;;;;4999791;28;20037;-72
2021/08/09 05:01:34;;;;;;;11.55;4.53;;;14.40;99.90;;;;;;5017732;28;20040;-72
2021/08/09 05:03:59;;;;;;;11.63;4.53;;;14.40;99.90;;;;;;5005934;28;20038;-72
2021/08/09 05:06:25;;;;;;;13.40;4.53;;;14.50;99.90;;;;;;5004963;28;20076;-72
2021/08/09 05:08:50;;;;;;;14.18;4.68;;;14.50;99.90;;;;;;4995316;28;20388;-72
2021/08/09 05:11:16;;;;;;;10.70;4.30;;;14.50;99.90;;;;;;4997082;28;20084;-72
2021/08/09 05:13:42;;;;;;;13.23;4.78;;;14.50;99.90;;;;;;4989909;28;20038;-72
2021/08/09 05:16:09;;;;;;;11.13;4.53;;;14.60;99.90;;;;;;4990038;28;20042;-72
2021/08/09 05:18:34;;;;;;;10.48;4.20;;;14.60;99.90;;;;;;5003734;28;20479;-72
2021/08/09 05:21:00;;;;;;;11.65;4.60;;;14.60;99.90;;;;;;5008039;28;20068;-72
2021/08/09 05:23:29;;;;;;;8.05;4.30;;;14.60;99.90;;;;;;5002342;28;20043;-72
2021/08/09 05:25:54;;;;;;;11.10;4.40;;;14.70;99.90;;;;;;4989538;28;20054;-72
2021/08/09 05:28:20;;;;;;;11.55;4.45;;;14.70;99.90;;;;;;5001650;28;20045;-72
2021/08/09 05:30:47;;;;;;;11.27;4.40;;;14.70;99.90;;;;;;5006417;28;20087;-72
2021/08/09 05:33:14;;;;;;;12.23;4.63;;;14.80;99.90;;;;;;5001700;28;20448;-72
2021/08/09 05:35:40;;;;;;;8.35;4.20;;;14.80;99.90;;;;;;5009382;28;20391;-71
2021/08/09 05:38:08;;;;;;;13.18;4.60;;;14.80;99.90;;;;;;5086748;28;20479;-72
2021/08/09 05:40:35;;;;;;;12.32;4.13;;;14.80;99.90;;;;;;4989535;28;20788;-72
2021/08/09 05:43:01;;;;;;;10.70;4.40;;;14.90;99.90;;;;;;4999006;28;20455;-72
2021/08/09 05:45:27;;;;;;;10.43;4.38;;;14.90;99.90;;;;;;5002469;28;20037;-72
2021/08/09 05:47:52;;;;;;;11.25;4.32;;;14.90;99.90;;;;;;5007470;28;20060;-72
2021/08/09 05:50:18;;;;;;;12.35;4.75;;;14.90;99.90;;;;;;5003663;28;20034;-72
2021/08/09 05:52:43;;;;;;;10.20;4.63;;;15.00;99.90;;;;;;5004152;28;20042;-71
2021/08/09 05:55:09;;;;;;;10.18;4.28;;;15.10;99.90;;;;;;4999019;28;20372;-71
2021/08/09 05:57:35;;;;;;;10.30;4.53;;;15.10;99.90;;;;;;5000319;28;20034;-71
2021/08/09 06:00:01;;;;;;;11.75;4.35;;;15.20;99.90;;;;;;4989331;28;20034;-71
2021/08/09 06:02:26;;;;;;;10.18;4.47;;;15.20;99.90;;;;;;4992569;28;20636;-71
2021/08/09 06:04:52;;;;;;;11.48;4.63;;;15.30;99.90;;;;;;4993087;28;20038;-71
2021/08/09 06:07:18;;;;;;;13.35;4.68;;;15.30;99.90;;;;;;4997932;28;20475;-71
2021/08/09 06:09:44;;;;;;;10.68;4.40;;;15.30;99.90;;;;;;4998243;28;20042;-70
2021/08/09 06:12:11;;;;;;;11.35;4.43;;;15.40;99.90;;;;;;4992353;28;20403;-71
2021/08/09 06:14:37;;;;;;;11.93;4.88;;;15.40;99.90;;;;;;5006069;28;20454;-71
2021/08/09 06:17:05;;;;;;;11.70;4.53;;;15.50;99.90;;;;;;5007774;28;20042;-71
2021/08/09 06:19:31;;;;;;;9.93;4.03;;;15.50;99.90;;;;;;5005175;28;20479;-66
2021/08/09 06:21:57;;;;;;;10.35;4.25;;;15.70;99.90;;;;;;5012777;28;20059;-66
2021/08/09 06:24:22;;;;;;;12.60;4.75;;;15.80;99.90;;;;;;5002068;28;20050;-66
2021/08/09 06:26:49;;;;;;;11.27;3.72;;;15.90;99.90;;;;;;5007659;28;20077;-66
2021/08/09 06:29:15;;;;;;;10.40;4.45;;;16.00;99.90;;;;;;5010967;28;20038;-66
2021/08/09 06:31:40;;;;;;;10.50;4.00;;;16.20;99.90;;;;;;5008463;28;20086;-66
2021/08/09 06:34:06;;;;;;;10.30;4.07;;;16.30;99.90;;;;;;5011738;28;20394;-66
2021/08/09 06:36:32;;;;;;;8.35;3.03;;;16.50;99.90;;;;;;5010209;28;20079;-65
2021/08/09 06:38:58;;;;;;;12.10;4.00;;;16.80;99.90;;;;;;5006104;28;20046;-66
2021/08/09 06:41:31;;;;;;;11.55;3.97;;;17.00;99.90;;;;;;5006257;28;20489;-66
2021/08/09 06:43:56;;;;;;;9.23;3.20;;;17.30;99.90;;;;;;5013965;28;20110;-66
2021/08/09 06:46:22;;;;;;;10.93;4.03;;;17.70;99.90;;;;;;5056580;28;20046;-66
2021/08/09 06:48:48;;;;;;;10.60;4.13;;;18.40;99.90;;;;;;5008110;28;20136;-66
2021/08/09 06:51:13;;;;;;;10.00;4.15;;;18.50;99.90;;;;;;5006806;28;20816;-66
2021/08/09 06:53:39;;;;;;;11.57;4.15;;;18.80;99.90;;;;;;5010586;28;20041;-66
2021/08/09 06:56:04;;;;;;;9.05;4.22;;;19.50;99.90;;;;;;5002155;28;20121;-66
2021/08/09 06:58:30;;;;;;;9.73;3.80;;;20.30;99.90;;;;;;4994884;28;20035;-66
2021/08/09 07:00:56;;;;;;;10.10;3.40;;;20.80;99.90;;;;;;5003132;28;20040;-66
2021/08/09 07:03:21;;;;;;;8.18;2.97;;;21.30;99.90;;;;;;4996531;28;20491;-66
2021/08/09 07:05:47;;;;;;;8.98;3.28;;;21.70;99.90;;;;;;4988086;28;20039;-66
2021/08/09 07:08:14;;;;;;;10.73;3.65;;;22.10;99.90;;;;;;4991988;28;20038;-66
2021/08/09 07:10:41;;;;;;;18.65;3.78;;;22.40;99.20;;;;;;4994621;28;20095;-66
2021/08/09 07:13:07;;;;;;;10.88;3.30;;;22.70;98.90;;;;;;4995990;28;20042;-66
2021/08/09 07:15:33;;;;;;;10.95;3.60;;;22.90;98.30;;;;;;5006993;28;20124;-66
2021/08/09 07:17:59;;;;;;;11.55;3.47;;;23.50;96.60;;;;;;5003733;28;20113;-67
2021/08/09 07:20:24;;;;;;;10.50;3.42;;;23.60;96.70;;;;;;4997370;28;20145;-66
2021/08/09 07:22:50;;;;;;;9.57;3.17;;;23.90;96.20;;;;;;4998197;28;20426;-66
2021/08/09 07:25:17;;;;;;;13.18;3.78;;;23.50;96.20;;;;;;5000210;28;20046;-66
2021/08/09 07:27:43;;;;;;;10.82;3.47;;;22.90;97.10;;;;;;5000425;28;20463;-66
2021/08/09 07:30:11;;;;;;;12.23;3.60;;;22.20;97.70;;;;;;5005961;28;20034;-66
2021/08/09 07:32:37;;;;;;;11.30;3.47;;;21.70;98.60;;;;;;4997081;28;20044;-66
2021/08/09 07:35:04;;;;;;;9.50;3.08;;;21.10;99.70;;;;;;5002851;28;20463;-66
2021/08/09 07:37:29;;;;;;;8.73;3.42;;;20.80;99.90;;;;;;5008998;28;20046;-66
2021/08/09 07:39:56;;;;;;;8.65;3.08;;;20.40;99.90;;;;;;5008514;28;20053;-66
2021/08/09 07:42:22;;;;;;;10.60;3.35;;;20.20;99.90;;;;;;5003971;28;20030;-66
2021/08/09 07:44:48;;;;;;;10.02;3.05;;;20.00;99.90;;;;;;5008170;28;20471;-66
2021/08/09 07:47:15;;;;;;;7.60;3.20;;;20.00;99.90;;;;;;5008139;28;20102;-67
2021/08/09 07:49:40;;;;;;;9.18;3.20;;;19.90;99.90;;;;;;5008589;28;20049;-66
2021/08/09 07:52:06;;;;;;;10.60;3.70;;;19.80;99.90;;;;;;5007274;28;20034;-66
2021/08/09 07:54:32;;;;;;;9.82;2.95;;;19.80;99.90;;;;;;5008117;28;20907;-66
2021/08/09 07:57:03;;;;;;;12.30;3.80;;;19.70;99.90;;;;;;5009378;28;20095;-66
2021/08/09 07:59:29;;;;;;;10.35;3.40;;;19.70;99.90;;;;;;5003506;28;20121;-66
2021/08/09 08:01:55;;;;;;;12.93;3.55;;;19.70;99.90;;;;;;5002282;28;20105;-66
2021/08/09 08:04:20;;;;;;;9.80;3.30;;;19.50;99.90;;;;;;5009069;28;20034;-66
2021/08/09 08:06:46;;;;;;;10.93;3.75;;;19.50;99.90;;;;;;5001394;28;20042;-66
2021/08/09 08:09:11;;;;;;;11.73;3.65;;;19.20;99.90;;;;;;5005658;28;20069;-66
2021/08/09 08:11:37;;;;;;;11.13;3.90;;;19.20;99.90;;;;;;5008454;28;20042;-66
2021/08/09 08:14:03;;;;;;;9.90;2.95;;;19.10;99.90;;;;;;5005985;28;20421;-65
2021/08/09 08:16:29;;;;;;;10.45;3.70;;;19.20;99.90;;;;;;5007767;28;20038;-66
2021/08/09 08:18:55;;;;;;;11.25;4.13;;;19.20;99.90;;;;;;5009506;28;20040;-66
2021/08/09 08:21:20;;;;;;;7.57;3.47;;;19.20;99.90;;;;;;5007233;28;20553;-66
2021/08/09 08:23:46;;;;;;;14.27;3.33;;;19.20;99.90;;;;;;5008668;28;20984;-66
2021/08/09 08:26:11;;;;;;;12.50;3.28;;;19.20;99.90;;;;;;5009807;28;20399;-72
2021/08/09 08:28:37;;;;;;;10.88;3.30;;;19.10;99.90;;;;;;5010365;28;20042;-72
2021/08/09 08:31:03;;;;;;;8.77;3.30;;;19.20;99.90;;;;;;5008131;28;20441;-72
2021/08/09 08:33:29;;;;;;;11.98;3.90;;;19.10;99.90;;;;;;5001736;28;20080;-72
2021/08/09 08:35:55;;;;;;;15.30;3.85;;;19.20;99.90;;;;;;4999536;28;20099;-71
2021/08/09 08:38:21;;;;;;;11.48;3.50;;;19.40;99.90;;;;;;5008055;28;20034;-73
2021/08/09 08:40:49;;;;;;;12.55;3.40;;;19.40;99.90;;;;;;5008372;28;20071;-73
2021/08/09 08:43:26;;;;;;;11.25;3.50;;;19.40;99.90;;;;;;5008307;28;20061;-73
2021/08/09 08:46:01;;;;;;;14.93;3.58;;;19.60;99.90;;;;;;5001768;28;20058;-73
2021/08/09 08:48:29;;;;;;;9.20;2.75;;;19.70;99.90;;;;;;4998223;28;20074;-73
2021/08/09 08:50:57;;;;;;;10.63;3.67;;;19.80;99.90;;;;;;5009909;28;20038;-73
2021/08/09 08:53:23;;;;;;;8.13;2.88;;;19.80;99.90;;;;;;5006687;28;20383;-73
2021/08/09 08:55:49;;;;;;;11.20;3.60;;;19.90;99.90;;;;;;5009087;28;20134;-73
2021/08/09 08:58:14;;;;;;;9.05;3.10;;;20.00;99.90;;;;;;5007561;28;20510;-72
2021/08/09 09:00:42;;;;;;;10.57;2.72;;;20.20;99.90;;;;;;5007131;28;20464;-73
2021/08/09 09:03:22;;;;;;;9.35;3.85;;;20.30;99.90;;;;;;4997532;28;20038;-73
2021/08/09 09:06:08;;;;;;;9.00;2.95;;;20.40;99.90;;;;;;4990025;28;20050;-73
2021/08/09 09:08:46;;;;;;;10.07;3.25;;;20.40;99.90;;;;;;5007402;28;20045;-73
2021/08/09 09:11:24;;;;;;;11.13;2.88;;;20.60;99.90;;;;;;5007495;28;20042;-73
2021/08/09 09:13:54;;;;;;;10.02;3.22;;;20.60;99.90;;;;;;5004159;28;20045;-73
2021/08/09 09:16:20;;;;;;;10.77;3.10;;;20.70;99.90;;;;;;5007726;28;20486;-73
2021/08/09 09:18:59;;;;;;;11.02;3.38;;;20.80;99.90;;;;;;5007170;28;20042;-72
2021/08/09 09:21:34;;;;;;;8.50;3.03;;;20.90;99.90;;;;;;5003986;28;20033;-73
2021/08/09 09:24:14;;;;;;;6.45;2.40;;;20.90;99.90;;;;;;4999718;28;20042;-73
2021/08/09 09:26:42;;;;;;;7.88;2.50;;;21.00;99.90;;;;;;5001932;28;20600;-73
2021/08/09 09:29:17;;;;;;;9.48;2.75;;;21.10;99.90;;;;;;4997958;28;20038;-73
2021/08/09 09:31:45;;;;;;;13.95;3.03;;;21.10;99.90;;;;;;5004451;28;20121;-72
2021/08/09 09:34:16;;;;;;;7.63;2.80;;;21.20;99.90;;;;;;5018565;28;20038;-73
2021/08/09 09:36:46;;;;;;;8.40;2.97;;;21.30;99.90;;;;;;5006138;28;20053;-72
2021/08/09 09:39:29;;;;;;;7.85;2.67;;;21.50;99.90;;;;;;5008679;28;20034;-73
2021/08/09 09:41:58;;;;;;;9.70;2.30;;;21.50;99.50;;;;;;5007063;28;20041;-73
2021/08/09 09:44:25;;;;;;;6.63;2.63;;;21.50;99.70;;;;;;5006981;28;20046;-72
2021/08/09 09:46:51;;;;;;;6.53;2.17;;;21.40;97.70;;;;;;4989367;28;20062;-73
2021/08/09 09:49:34;;;;;;;8.15;2.45;;;21.40;98.90;;;;;;4995775;28;20030;-73
2021/08/09 09:52:00;;;;;;;5.90;1.92;;;21.50;99.50;;;;;;5007924;28;20070;-73
2021/08/09 09:54:28;;;;;;;6.03;2.00;;;21.50;98.80;;;;;;5002099;28;20126;-73
2021/08/09 09:56:54;;;;;;;6.38;2.17;;;21.60;97.60;;;;;;5005060;28;20046;-73
2021/08/09 09:59:21;;;;;;;6.53;2.13;;;21.70;98.40;;;;;;5006452;28;20437;-73
2021/08/09 10:01:49;;;;;;;5.57;2.03;;;21.90;98.50;;;;;;5003030;28;20034;-70
2021/08/09 10:04:15;;;;;;;4.30;1.75;;;22.00;97.40;;;;;;5006871;28;20579;-70
2021/08/09 10:06:41;;;;;;;5.95;1.65;;;22.10;97.70;;;;;;5006605;28;20042;-70
2021/08/09 10:09:09;;;;;;;9.65;2.40;;;22.00;97.10;;;;;;5025632;28;20075;-69
2021/08/09 10:11:41;;;;;;;4.63;1.77;;;22.20;97.90;;;;;;5004491;28;20124;-70
2021/08/09 10:14:07;;;;;;;7.07;1.75;;;22.40;97.50;;;;;;5005939;28;20048;-68
2021/08/09 10:16:35;;;;;;;5.32;1.77;;;22.40;97.10;;;;;;5003193;28;20090;-69
2021/08/09 10:19:01;;;;;;;4.28;1.30;;;22.50;97.00;;;;;;5001995;28;20031;-70
2021/08/09 10:21:31;;;;;;;3.40;1.30;;;22.50;96.70;;;;;;5003555;28;20038;-70
2021/08/09 10:23:57;;;;;;;5.43;1.67;;;22.50;96.80;;;;;;5001036;28;20034;-70
2021/08/09 10:26:32;;;;;;;4.25;1.50;;;22.40;97.40;;;;;;5001721;28;20414;-70
2021/08/09 10:29:04;;;;;;;3.28;1.60;;;22.40;97.10;;;;;;5006265;28;20561;-70
2021/08/09 10:31:52;;;;;;;4.75;1.83;;;22.50;97.30;;;;;;5001175;28;20034;-69
2021/08/09 10:34:37;;;;;;;8.82;2.10;;;22.40;96.90;;;;;;4999493;28;20038;-69
2021/08/09 10:37:14;;;;;;;6.38;1.90;;;22.60;96.80;;;;;;4999986;28;20117;-70
2021/08/09 10:40:01;;;;;;;3.65;1.13;;;22.70;96.20;;;;;;5007194;28;20046;-70
2021/08/09 10:42:28;;;;;;;3.63;1.75;;;22.70;96.30;;;;;;5001666;28;20046;-70
2021/08/09 10:44:54;;;;;;;4.90;1.63;;;22.80;95.90;;;;;;5019330;28;20136;-69
2021/08/09 10:47:46;;;;;;;4.72;1.58;;;22.90;95.60;;;;;;5005787;28;20052;-70
2021/08/09 10:50:26;;;;;;;4.60;1.40;;;22.90;95.80;;;;;;5010761;28;20057;-69
2021/08/09 10:52:56;;;;;;;3.85;1.27;;;23.10;94.40;;;;;;5001261;28;20056;-69
2021/08/09 10:55:30;;;;;;;4.53;1.35;;;23.20;95.10;;;;;;5004873;28;20038;-69
2021/08/09 10:58:04;;;;;;;7.30;1.27;;;23.30;94.80;;;;;;5003999;28;20718;-70
2021/08/09 11:00:39;;;;;;;4.20;1.52;;;23.40;93.60;;;;;;5003622;28;20042;-70
2021/08/09 11:03:22;;;;;;;3.80;1.25;;;23.20;94.80;;;;;;5004884;28;20072;-69
2021/08/09 11:05:48;;;;;;;3.42;1.10;;;23.40;94.70;;;;;;4991214;28;20845;-71
2021/08/09 11:08:20;;;;;;;1.92;1.00;;;23.40;94.80;;;;;;5006154;28;20042;-70
2021/08/09 11:10:55;;;;;;;2.80;1.10;;;23.40;94.90;;;;;;5013315;28;20072;-71
2021/08/09 11:13:21;;;;;;;1.98;0.80;;;23.30;94.30;;;;;;5006514;28;20038;-70
2021/08/09 11:15:54;;;;;;;3.40;1.10;;;23.30;94.50;;;;;;5009082;28;20061;-70
2021/08/09 11:18:20;;;;;;;2.83;1.00;;;23.20;94.30;;;;;;5029358;23;20061;-68
2021/08/09 11:20:46;;;;;;;4.15;0.98;;;23.10;95.00;;;;;;5005912;28;20038;-67
2021/08/09 11:23:15;;;;;;;2.70;1.00;;;23.00;94.70;;;;;;5007791;28;20379;-68
2021/08/09 11:25:46;;;;;;;3.28;1.00;;;23.00;94.30;;;;;;5011145;28;20071;-68
2021/08/09 11:28:21;;;;;;;;;;;22.70;95.00;;;;;;5009662;28;20615;-68
2021/08/09 11:30:53;;;;;;;4.45;1.23;;;22.60;95.80;;;;;;5017300;28;19916;-67
2021/08/09 11:33:26;;;;;;;4.30;1.23;;;22.60;94.90;;;;;;5008233;28;20044;-68
2021/08/09 11:35:57;;;;;;;2.97;1.27;;;22.40;95.80;;;;;;5008029;28;20111;-68
2021/08/09 11:38:24;;;;;;;2.83;1.27;;;22.30;95.90;;;;;;5008388;28;20049;-68
2021/08/09 11:40:50;;;;;;;3.72;1.40;;;22.30;95.90;;;;;;5008533;28;20037;-68
2021/08/09 11:43:31;;;;;;;3.33;1.50;;;22.20;95.90;;;;;;5006669;28;20048;-68
2021/08/09 11:46:19;;;;;;;4.35;1.27;;;22.10;96.60;;;;;;5001017;28;20046;-68
2021/08/09 11:48:48;;;;;;;3.88;1.60;;;22.00;96.60;;;;;;5004528;28;20066;-68
2021/08/09 11:51:15;;;;;;;5.50;1.63;;;21.90;97.10;;;;;;5000749;28;20041;-68
2021/08/09 11:53:45;;;;;;;3.95;1.40;;;22.00;97.10;;;;;;5006497;28;20053;-68
2021/08/09 11:56:19;;;;;;;3.80;1.70;;;22.10;96.90;;;;;;5002577;28;20479;-68
2021/08/09 11:58:45;;;;;;;2.88;1.13;;;22.20;96.40;;;;;;4998864;28;20045;-68
2021/08/09 12:01:36;;;;;;;4.05;1.63;;;22.40;96.60;;;;;;5006293;28;20124;-68
2021/08/09 12:04:09;;;;;;;4.18;1.40;;;22.60;96.40;;;;;;5021099;28;20380;-67
2021/08/09 12:06:49;;;;;;;4.43;1.40;;;22.80;95.40;;;;;;5008106;28;20125;-68
2021/08/09 12:09:17;;;;;;;4.68;1.42;;;23.00;97.00;;;;;;4993777;28;20072;-68
2021/08/09 12:11:43;;;;;;;6.38;1.30;;;23.10;96.30;;;;;;5001001;28;20113;-68
2021/08/09 12:14:12;;;;;;;3.88;2.20;;;23.20;95.10;;;;;;5007270;28;20515;-67
2021/08/09 12:16:50;;;;;;;5.18;1.60;;;23.30;95.90;;;;;;5004267;28;20477;-67
2021/08/09 12:19:20;;;;;;;6.68;1.70;;;23.40;96.20;;;;;;4999822;28;20402;-67
2021/08/09 12:21:47;;;;;;;4.82;1.85;;;23.50;95.30;;;;;;5014776;28;20475;-69
2021/08/09 12:24:17;;;;;;;3.45;1.42;;;23.30;94.90;;;;;;4999899;28;20069;-69
2021/08/09 12:26:43;;;;;;;4.15;1.35;;;23.10;96.00;;;;;;5005834;28;20042;-69
2021/08/09 12:29:16;;;;;;;3.92;1.50;;;23.10;96.20;;;;;;5003331;28;20539;-69
2021/08/09 12:31:47;;;;;;;5.60;1.73;;;23.10;96.50;;;;;;5008965;28;20122;-68
2021/08/09 12:34:23;;;;;;;3.97;1.90;;;23.10;96.20;;;;;;5007622;28;20125;-68
2021/08/09 12:36:50;;;;;;;4.85;1.63;;;23.00;95.80;;;;;;4999798;28;20045;-68
2021/08/09 12:39:31;;;;;;;4.95;1.90;;;23.00;96.80;;;;;;5004026;28;20052;-68
2021/08/09 12:42:09;;;;;;;5.03;1.70;;;22.90;96.20;;;;;;5007243;28;20091;-69
2021/08/09 12:44:35;;;;;;;3.33;1.65;;;23.10;96.70;;;;;;4998196;28;20038;-69
2021/08/09 12:47:01;;;;;;;5.65;1.95;;;23.10;96.60;;;;;;5007027;28;20083;-69
2021/08/09 12:49:28;;;;;;;3.90;1.65;;;23.10;96.20;;;;;;5008304;28;20060;-69
2021/08/09 12:51:54;;;;;;;5.47;1.50;;;23.20;95.70;;;;;;4996441;28;20034;-69